createdAt,value
2022-11-22T00:00:29.335Z,100393.63
2022-11-22T00:03:32.696Z,100389.69
2022-11-22T00:06:34.840Z,100387.31
2022-11-22T00:09:37.059Z,100390.25
2022-11-22T00:12:39.962Z,100396.84
2022-11-22T00:15:42.545Z,100397.22
2022-11-22T00:18:44.566Z,100394.69
2022-11-22T00:21:47.012Z,100407.56
2022-11-22T00:24:51.870Z,100405.69
2022-11-22T00:27:55.262Z,100393.94
2022-11-22T00:31:00.341Z,100401.19
2022-11-22T00:34:02.672Z,100404.09
2022-11-22T00:37:04.835Z,100398.16
2022-11-22T00:40:07.700Z,100402.56
2022-11-22T00:43:09.739Z,100400.22
2022-11-22T00:46:11.808Z,100385.16
2022-11-22T00:49:13.979Z,100410.00
2022-11-22T00:52:16.377Z,100405.81
2022-11-22T00:55:18.525Z,100407.84
2022-11-22T00:58:20.582Z,100403.66
2022-11-22T01:01:22.680Z,100412.22
2022-11-22T01:04:24.843Z,100410.94
2022-11-22T01:07:27.551Z,100399.28
2022-11-22T01:10:29.630Z,100413.78
2022-11-22T01:13:31.907Z,100427.63
2022-11-22T01:16:35.094Z,100422.34
2022-11-22T01:19:37.238Z,100434.91
2022-11-22T01:22:39.283Z,100440.47
2022-11-22T01:25:44.375Z,100431.31
2022-11-22T01:28:46.466Z,100401.44
2022-11-22T01:31:48.561Z,100427.91
2022-11-22T01:34:50.555Z,100414.78
2022-11-22T01:37:52.764Z,100419.94
2022-11-22T01:40:55.290Z,100424.97
2022-11-22T01:43:57.418Z,100424.53
2022-11-22T01:47:17.899Z,100437.00
2022-11-22T01:50:20.404Z,100430.97
2022-11-22T01:53:30.440Z,100411.41
2022-11-22T01:56:33.209Z,100422.97
2022-11-22T01:59:38.352Z,100430.25
2022-11-22T02:02:41.595Z,100417.41
2022-11-22T02:05:43.679Z,100419.44
2022-11-22T02:08:56.930Z,100442.66
2022-11-22T02:12:02.758Z,100416.56
2022-11-22T02:15:05.226Z,100425.13
2022-11-22T02:18:07.314Z,100415.25
2022-11-22T02:21:09.691Z,100444.00
2022-11-22T02:24:27.107Z,100430.13
2022-11-22T02:27:29.178Z,100427.84
2022-11-22T02:30:31.693Z,100440.34
2022-11-22T02:33:33.788Z,100437.56
2022-11-22T02:36:41.604Z,100430.44
2022-11-22T02:39:47.715Z,100429.78
2022-11-22T02:42:56.007Z,100464.56
2022-11-22T02:46:05.247Z,100448.47
2022-11-22T02:49:07.398Z,100432.88
2022-11-22T02:52:09.694Z,100437.66
2022-11-22T02:55:11.983Z,100419.78
2022-11-22T02:58:14.259Z,100441.72
2022-11-22T03:01:16.687Z,100455.44
2022-11-22T03:04:25.236Z,100459.06
2022-11-22T03:07:27.468Z,100453.97
2022-11-22T03:10:29.575Z,100453.50
2022-11-22T03:13:31.572Z,100432.59
2022-11-22T03:16:33.679Z,100459.00
2022-11-22T03:19:35.880Z,100451.66
2022-11-22T03:22:37.898Z,100444.72
2022-11-22T03:25:40.125Z,100452.63
2022-11-22T03:28:42.332Z,100445.91
2022-11-22T03:31:45.204Z,100474.59
2022-11-22T03:34:47.589Z,100466.13
2022-11-22T03:37:49.689Z,100479.84
2022-11-22T03:40:51.840Z,100475.53
2022-11-22T03:43:53.907Z,100474.34
2022-11-22T03:46:56.421Z,100488.94
2022-11-22T03:49:58.634Z,100485.88
2022-11-22T03:53:02.194Z,100482.81
2022-11-22T03:56:04.971Z,100484.13
2022-11-22T03:59:07.373Z,100486.56
2022-11-22T04:02:09.693Z,100488.03
2022-11-22T04:05:11.858Z,100499.59
2022-11-22T04:08:14.313Z,100490.16
2022-11-22T04:11:16.560Z,100473.22
2022-11-22T04:14:37.522Z,100496.31
2022-11-22T04:17:41.882Z,100458.88
2022-11-22T04:21:02.982Z,100481.69
2022-11-22T04:24:28.747Z,100502.44
2022-11-22T04:27:31.156Z,100489.28
2022-11-22T04:30:52.094Z,100490.66
2022-11-22T04:33:54.100Z,100507.53
2022-11-22T04:36:56.733Z,100495.41
2022-11-22T04:39:59.404Z,100496.59
2022-11-22T04:43:20.966Z,100505.25
2022-11-22T04:46:25.563Z,100501.59
2022-11-22T04:49:28.563Z,100498.66
2022-11-22T04:52:49.958Z,100474.31
2022-11-22T04:55:52.881Z,100496.28
2022-11-22T04:58:55.021Z,100483.16
2022-11-22T05:01:57.069Z,100493.81
2022-11-22T05:05:00.334Z,100485.97
2022-11-22T05:08:02.897Z,100496.66
2022-11-22T05:11:05.087Z,100498.88
2022-11-22T05:14:07.277Z,100497.72
2022-11-22T05:17:13.635Z,100504.28
2022-11-22T05:20:16.036Z,100507.22
2022-11-22T05:23:37.436Z,100528.91
2022-11-22T05:26:40.147Z,100531.19
2022-11-22T05:29:42.203Z,100533.69
2022-11-22T05:32:44.205Z,100533.91
2022-11-22T05:35:46.288Z,100527.97
2022-11-22T05:38:48.730Z,100520.63
2022-11-22T05:41:58.006Z,100519.59
2022-11-22T05:45:00.042Z,100538.28
2022-11-22T05:48:03.222Z,100543.69
2022-11-22T05:51:12.078Z,100559.59
2022-11-22T05:54:13.992Z,100550.16
2022-11-22T05:57:16.565Z,100548.72
2022-11-22T06:00:18.997Z,100550.22
2022-11-22T06:03:21.198Z,100543.94
2022-11-22T06:06:25.488Z,100553.03
2022-11-22T06:09:27.666Z,100560.31
2022-11-22T06:12:30.496Z,100562.19
2022-11-22T06:15:34.348Z,100535.97
2022-11-22T06:18:37.378Z,100548.00
2022-11-22T06:21:39.717Z,100573.88
2022-11-22T06:24:43.069Z,100544.69
2022-11-22T06:27:45.013Z,100563.09
2022-11-22T06:30:47.051Z,100550.38
2022-11-22T06:33:49.651Z,100552.38
2022-11-22T06:36:51.825Z,100568.41
2022-11-22T06:39:53.907Z,100570.28
2022-11-22T06:42:55.901Z,100552.66
2022-11-22T06:45:59.183Z,100545.69
2022-11-22T06:49:01.485Z,100562.22
2022-11-22T06:52:03.709Z,100573.75
2022-11-22T06:55:08.110Z,100555.31
2022-11-22T06:58:13.648Z,100581.00
2022-11-22T07:01:18.795Z,100573.78
2022-11-22T07:04:21.167Z,100570.59
2022-11-22T07:07:24.132Z,100565.75
2022-11-22T07:10:26.249Z,100582.38
2022-11-22T07:13:28.668Z,100579.63
2022-11-22T07:16:32.755Z,100576.06
2022-11-22T07:19:35.910Z,100564.88
2022-11-22T07:22:38.948Z,100582.38
2022-11-22T07:25:52.218Z,100562.81
2022-11-22T07:28:58.426Z,100580.94
2022-11-22T07:32:00.465Z,100578.03
2022-11-22T07:35:17.286Z,100589.22
2022-11-22T07:38:20.486Z,100568.97
2022-11-22T07:41:22.770Z,100575.09
2022-11-22T07:44:25.860Z,100586.88
2022-11-22T07:47:28.951Z,100593.81
2022-11-22T07:50:36.810Z,100596.97
2022-11-22T07:53:39.536Z,100588.38
2022-11-22T07:56:41.563Z,100588.38
2022-11-22T07:59:43.732Z,100594.69
2022-11-22T08:02:47.846Z,100590.19
2022-11-22T08:05:50.642Z,100567.28
2022-11-22T08:09:00.492Z,100554.69
2022-11-22T08:12:05.219Z,100576.59
2022-11-22T08:15:08.333Z,100584.53
2022-11-22T08:18:10.990Z,100585.38
2022-11-22T08:21:15.710Z,100561.81
2022-11-22T08:24:21.377Z,100580.19
2022-11-22T08:27:24.850Z,100579.75
2022-11-22T08:30:27.140Z,100577.78
2022-11-22T08:33:29.346Z,100582.09
2022-11-22T08:36:32.071Z,100591.84
2022-11-22T08:39:34.181Z,100575.06
2022-11-22T08:42:36.343Z,100590.19
2022-11-22T08:45:39.303Z,100594.66
2022-11-22T08:48:41.369Z,100599.44
2022-11-22T08:51:45.142Z,100590.41
2022-11-22T08:54:47.811Z,100590.50
2022-11-22T08:57:49.915Z,100577.97
2022-11-22T09:00:52.074Z,100592.34
2022-11-22T09:03:54.232Z,100580.22
2022-11-22T09:10:19.428Z,100584.50
2022-11-22T09:13:21.476Z,100578.31
2022-11-22T09:16:23.979Z,100575.69
2022-11-22T09:19:26.252Z,100578.66
2022-11-22T09:22:28.680Z,100576.06
2022-11-22T09:25:31.365Z,100588.16
2022-11-22T09:28:34.779Z,100585.84
2022-11-22T09:31:36.944Z,100570.69
2022-11-22T09:34:38.928Z,100561.72
2022-11-22T09:37:41.485Z,100580.69
2022-11-22T09:40:47.630Z,100584.44
2022-11-22T09:43:59.123Z,100580.88
2022-11-22T09:47:25.577Z,100579.09
2022-11-22T09:50:54.943Z,100557.47
2022-11-22T09:54:08.909Z,100568.63
2022-11-22T09:57:21.968Z,100547.63
2022-11-22T10:00:28.412Z,100545.19
2022-11-22T10:03:52.404Z,100557.28
2022-11-22T10:07:03.150Z,100555.44
2022-11-22T10:10:22.593Z,100554.94
2022-11-22T10:13:51.411Z,100558.09
2022-11-22T10:17:16.485Z,100557.28
2022-11-22T10:20:27.842Z,100550.53
2022-11-22T10:23:33.006Z,100556.84
2022-11-22T10:26:36.899Z,100572.31
2022-11-22T10:29:51.638Z,100572.44
2022-11-22T10:33:19.706Z,100566.19
2022-11-22T10:36:43.512Z,100568.97
2022-11-22T10:40:12.121Z,100556.81
2022-11-22T10:43:34.387Z,100551.28
2022-11-22T10:46:51.110Z,100558.41
2022-11-22T10:50:01.207Z,100557.72
2022-11-22T10:53:31.175Z,100552.91
2022-11-22T10:56:55.119Z,100571.56
2022-11-22T11:00:21.633Z,100574.44
2022-11-22T11:03:27.013Z,100575.41
2022-11-22T11:07:09.985Z,100581.03
2022-11-22T11:10:20.128Z,100576.56
2022-11-22T11:13:35.142Z,100589.16
2022-11-22T11:16:38.276Z,100593.84
2022-11-22T11:19:43.358Z,100597.38
2022-11-22T11:23:13.065Z,100594.41
2022-11-22T11:26:32.915Z,100595.53
2022-11-22T11:29:46.853Z,100601.03
2022-11-22T11:32:56.844Z,100588.81
2022-11-22T11:36:06.975Z,100598.22
2022-11-22T11:39:23.962Z,100604.84
2022-11-22T11:42:29.123Z,100612.50
2022-11-22T11:45:31.319Z,100621.19
2022-11-22T11:48:38.318Z,100622.41
2022-11-22T11:51:41.638Z,100627.81
2022-11-22T11:54:50.592Z,100632.38
2022-11-22T11:57:53.985Z,100615.56
2022-11-22T12:00:57.913Z,100620.69
2022-11-22T12:04:03.910Z,100629.19
2022-11-22T12:07:19.861Z,100629.19
2022-11-22T12:10:45.942Z,100625.28
2022-11-22T12:17:27.277Z,100630.88
2022-11-22T12:20:41.439Z,100632.00
2022-11-22T12:24:34.326Z,100634.91
2022-11-22T12:27:26.929Z,100620.81
2022-11-22T12:30:30.860Z,100604.72
2022-11-22T12:33:44.120Z,100612.41
2022-11-22T12:37:01.123Z,100611.97
2022-11-22T12:40:13.022Z,100611.09
2022-11-22T12:43:26.501Z,100580.31
2022-11-22T12:46:42.431Z,100604.38
2022-11-22T12:50:09.731Z,100589.94
2022-11-22T12:53:15.562Z,100592.88
2022-11-22T12:56:32.812Z,100585.78
2022-11-22T12:59:44.341Z,100592.53
2022-11-22T13:03:23.650Z,100580.81
2022-11-22T13:06:32.534Z,100563.88
2022-11-22T13:09:41.532Z,100565.94
2022-11-22T13:12:48.107Z,100551.41
2022-11-22T13:15:53.374Z,100562.47
2022-11-22T13:18:57.525Z,100557.19
2022-11-22T13:22:21.219Z,100560.53
2022-11-22T13:25:29.964Z,100563.84
2022-11-22T13:28:39.400Z,100569.66
2022-11-22T13:32:12.485Z,100564.34
2022-11-22T13:35:15.535Z,100568.00
2022-11-22T13:38:22.200Z,100550.91
2022-11-22T13:42:12.914Z,100559.28
2022-11-22T13:45:26.700Z,100554.84
2022-11-22T13:48:42.103Z,100570.09
2022-11-22T13:52:15.716Z,100588.81
2022-11-22T13:55:40.393Z,100577.63
2022-11-22T13:58:51.056Z,100588.00
2022-11-22T14:01:55.947Z,100583.19
2022-11-22T14:04:59.358Z,100571.09
2022-11-22T14:08:04.866Z,100558.84
2022-11-22T14:11:49.117Z,100594.03
2022-11-22T14:15:27.545Z,100593.50
2022-11-22T14:18:41.220Z,100585.91
2022-11-22T14:21:53.014Z,100580.13
2022-11-22T14:25:36.955Z,100598.03
2022-11-22T14:29:10.257Z,100608.03
2022-11-22T14:32:21.051Z,100602.94
2022-11-22T14:35:29.591Z,100583.84
2022-11-22T14:38:41.158Z,100596.44
2022-11-22T14:41:45.717Z,100604.72
2022-11-22T14:44:52.990Z,100603.97
2022-11-22T14:48:06.248Z,100601.31
2022-11-22T14:51:15.028Z,100607.81
2022-11-22T14:54:25.156Z,100612.00
2022-11-22T14:57:30.583Z,100619.28
2022-11-22T15:01:12.429Z,100632.81
2022-11-22T15:09:11.521Z,100633.53
2022-11-22T15:09:12.523Z,100629.69
2022-11-22T15:12:03.842Z,100635.03
2022-11-22T15:57:26.847Z,100666.91
2022-11-22T16:00:29.787Z,100653.38
2022-11-22T16:03:39.364Z,100671.47
2022-11-22T16:06:43.725Z,100678.13
2022-11-22T16:09:51.238Z,100682.91
2022-11-22T16:12:54.038Z,100649.91
2022-11-22T16:16:11.358Z,100676.59
2022-11-22T16:19:33.882Z,100680.69
2022-11-22T16:22:39.263Z,100651.84
2022-11-22T16:25:47.174Z,100668.03
2022-11-22T16:28:51.625Z,100684.38
2022-11-22T16:32:08.032Z,100670.75
2022-11-22T16:35:29.121Z,100689.16
2022-11-22T16:38:33.524Z,100679.19
2022-11-22T16:41:45.280Z,100671.81
2022-11-22T16:48:40.875Z,100672.44
2022-11-22T16:51:53.322Z,100661.81
2022-11-22T16:54:56.664Z,100696.16
2022-11-22T16:57:58.791Z,100688.03
2022-11-22T17:01:01.322Z,100672.38
2022-11-22T17:04:08.705Z,100684.16
2022-11-22T17:07:16.142Z,100675.91
2022-11-22T17:10:24.122Z,100685.47
2022-11-22T17:13:28.757Z,100695.78
2022-11-22T17:16:33.699Z,100695.09
2022-11-22T17:19:53.514Z,100684.00
2022-11-22T17:22:59.114Z,100675.41
2022-11-22T17:26:01.394Z,100696.94
2022-11-22T17:29:04.188Z,100693.25
2022-11-22T17:32:09.513Z,100676.94
2022-11-22T17:35:12.009Z,100653.41
2022-11-22T17:38:20.134Z,100682.84
2022-11-22T17:41:22.876Z,100679.50
2022-11-22T17:44:28.098Z,100686.88
2022-11-22T17:51:09.602Z,100679.84
2022-11-22T17:54:15.799Z,100666.31
2022-11-22T17:57:18.399Z,100680.91
2022-11-22T18:00:29.716Z,100664.69
2022-11-22T18:03:33.867Z,100668.94
2022-11-22T18:06:36.589Z,100656.56
2022-11-22T18:09:39.943Z,100668.91
2022-11-22T18:13:19.551Z,100679.94
2022-11-22T18:16:18.672Z,100647.91
2022-11-22T18:19:21.532Z,100665.34
2022-11-22T18:22:33.590Z,100659.94
2022-11-22T18:25:41.464Z,100655.53
2022-11-22T18:28:49.730Z,100660.72
2022-11-22T18:32:08.057Z,100664.38
2022-11-22T18:35:11.265Z,100673.69
2022-11-22T18:38:13.362Z,100656.63
2022-11-22T18:41:19.252Z,100664.38
2022-11-22T18:44:21.351Z,100660.22
2022-11-22T18:47:23.428Z,100660.03
2022-11-22T18:50:25.743Z,100669.19
2022-11-22T18:53:31.130Z,100666.34
2022-11-22T18:56:38.068Z,100664.19
2022-11-22T18:59:41.616Z,100662.50
2022-11-22T19:02:43.963Z,100658.81
2022-11-22T19:05:45.967Z,100656.50
2022-11-22T19:08:49.154Z,100645.03
2022-11-22T19:11:55.577Z,100653.66
2022-11-22T19:15:01.883Z,100651.47
2022-11-22T19:18:04.385Z,100661.41
2022-11-22T19:21:17.080Z,100646.94
2022-11-22T19:24:19.201Z,100664.28
2022-11-22T19:27:22.612Z,100662.38
2022-11-22T19:30:28.441Z,100663.25
2022-11-22T19:33:32.654Z,100665.75
2022-11-22T19:36:36.465Z,100668.63
2022-11-22T19:39:40.522Z,100665.16
2022-11-22T19:42:42.639Z,100660.59
2022-11-22T19:45:45.943Z,100671.06
2022-11-22T19:48:56.029Z,100669.28
2022-11-22T19:51:58.534Z,100669.28
2022-11-22T19:55:00.622Z,100659.78
2022-11-22T19:58:04.056Z,100663.66
2022-11-22T20:01:08.456Z,100647.09
2022-11-22T20:04:13.499Z,100651.75
2022-11-22T20:07:15.722Z,100645.31
2022-11-22T20:10:21.276Z,100662.94
2022-11-22T20:13:23.362Z,100658.72
2022-11-22T20:16:28.218Z,100626.41
2022-11-22T20:19:34.360Z,100642.03
2022-11-22T20:26:03.909Z,100654.94
2022-11-22T20:29:12.648Z,100643.53
2022-11-22T20:32:14.943Z,100647.91
2022-11-22T20:35:19.549Z,100660.59
2022-11-22T20:38:21.983Z,100661.81
2022-11-22T20:41:27.035Z,100647.63
2022-11-22T20:44:29.455Z,100627.41
2022-11-22T20:47:31.912Z,100627.59
2022-11-22T20:50:34.436Z,100614.56
2022-11-22T20:53:37.269Z,100636.91
2022-11-22T20:56:39.598Z,100629.75
2022-11-22T20:59:41.710Z,100628.13
2022-11-22T21:02:43.959Z,100627.13
2022-11-22T21:05:47.059Z,100616.69
2022-11-22T21:08:49.867Z,100608.84
2022-11-22T21:11:52.031Z,100632.53
2022-11-22T21:14:54.096Z,100615.19
2022-11-22T21:18:23.472Z,100614.84
2022-11-22T21:21:23.371Z,100626.91
2022-11-22T21:24:26.689Z,100618.06
2022-11-22T21:27:29.039Z,100583.34
2022-11-22T21:30:31.119Z,100610.69
2022-11-22T21:33:34.769Z,100610.38
2022-11-22T21:36:38.270Z,100592.63
2022-11-22T21:39:41.492Z,100591.34
2022-11-22T21:42:44.805Z,100576.53
2022-11-22T21:45:46.898Z,100573.09
2022-11-22T21:48:50.464Z,100585.97
2022-11-22T21:51:52.614Z,100587.91
2022-11-22T21:54:54.776Z,100568.16
2022-11-22T21:57:56.970Z,100581.22
2022-11-22T22:01:10.917Z,100586.50
2022-11-22T22:04:16.813Z,100577.38
2022-11-22T22:07:44.825Z,100562.28
2022-11-22T22:10:42.022Z,100556.28
2022-11-22T22:13:45.266Z,100569.94
2022-11-22T22:16:49.575Z,100558.09
2022-11-22T22:19:52.798Z,100548.41
2022-11-22T22:22:54.993Z,100566.88
2022-11-22T22:25:59.924Z,100560.41
2022-11-22T22:29:01.971Z,100576.59
2022-11-22T22:32:10.274Z,100566.59
2022-11-22T22:35:12.723Z,100559.91
2022-11-22T22:38:14.751Z,100538.16
2022-11-22T22:41:17.958Z,100538.59
2022-11-22T22:44:22.037Z,100529.31
2022-11-22T22:47:26.179Z,100529.25
2022-11-22T22:50:29.127Z,100532.03
2022-11-22T22:53:31.494Z,100545.81
2022-11-22T22:56:33.591Z,100520.31
2022-11-22T22:59:35.716Z,100546.25
2022-11-22T23:02:38.264Z,100531.31
2022-11-22T23:05:41.317Z,100528.13
2022-11-22T23:08:48.143Z,100548.41
2022-11-22T23:12:09.685Z,100560.28
2022-11-22T23:15:11.834Z,100541.25
2022-11-22T23:18:14.335Z,100512.09
2022-11-22T23:21:17.648Z,100536.59
2022-11-22T23:24:19.769Z,100544.34
2022-11-22T23:27:21.870Z,100527.91
2022-11-22T23:30:25.683Z,100517.38
2022-11-22T23:33:29.603Z,100523.75
2022-11-22T23:36:34.826Z,100541.44
2022-11-22T23:39:39.734Z,100513.53
2022-11-22T23:42:41.979Z,100527.97
2022-11-22T23:45:46.993Z,100524.59
2022-11-22T23:48:55.566Z,100534.16
2022-11-22T23:51:57.745Z,100525.22
2022-11-22T23:54:59.776Z,100531.28
2022-11-22T23:58:01.953Z,100494.19
